METAR Data
IDs: Format: Raw Decoded Include TAF

Data at: 0107 UTC 06 Dec 2019

KBGF 060055Z AUTO 00000KT 10SM FEW120 09/01 A3012 RMK A01
KBGF 060035Z AUTO 14004KT 10SM CLR 08/01 A3012 RMK A01
KBGF 060015Z AUTO 00000KT 10SM FEW120 08/01 A3012 RMK A01
KBGF 052355Z AUTO 00000KT 10SM CLR 09/01 A3012 RMK A01
KBGF 052335Z AUTO 00000KT 10SM CLR 10/00 A3011 RMK A01
KBGF 052315Z AUTO 17003KT 10SM CLR 11/M00 A3011 RMK A01
KBGF 052255Z AUTO 00000KT 10SM CLR 12/M00 A3010 RMK A01
KBGF 052235Z AUTO 00000KT 10SM CLR 14/M01 A3010 RMK A01
KBGF 052215Z AUTO 00000KT 10SM CLR 15/M01 A3010 RMK A01
KBGF 052155Z AUTO 00000KT 10SM CLR 16/M01 A3010 RMK A01
KBGF 052135Z AUTO 29003KT 10SM CLR 16/M02 A3010 RMK A01
KBGF 052115Z AUTO 26003KT 10SM CLR 17/M02 A3010 RMK A01
KBGF 052055Z AUTO 00000KT 10SM CLR 17/M02 A3009 RMK A01
KBGF 052035Z AUTO 24005KT 10SM CLR 17/M02 A3009 RMK A01
KBGF 052015Z AUTO 00000KT 10SM CLR 17/M02 A3009 RMK A01
KBGF 051955Z AUTO 00000KT 10SM CLR 17/M03 A3010 RMK A01
KBGF 051935Z AUTO VRB03KT 10SM CLR 17/M02 A3010 RMK A01
KBGF 051915Z AUTO 00000KT 10SM CLR 16/M02 A3010 RMK A01
KBGF 051855Z AUTO 00000KT 10SM CLR 16/M02 A3011 RMK A01
KBGF 051835Z AUTO 00000KT 9SM CLR 16/M03 A3011 RMK A01
KBGF 051815Z AUTO 00000KT 10SM CLR 15/M03 A3012 RMK A01
KBGF 051755Z AUTO VRB04KT 10SM CLR 15/M03 A3013 RMK A01
KBGF 051735Z AUTO 14004KT 10SM CLR 15/M03 A3014 RMK A01
KBGF 051715Z AUTO 00000KT 10SM CLR 14/M04 A3014 RMK A01
KBGF 051655Z AUTO 00000KT 10SM CLR 14/M01 A3015 RMK A01
KBGF 051615Z AUTO 00000KT 10SM CLR 12/M00 A3017 RMK A01
KBGF 051555Z AUTO 14003KT 10SM CLR 12/01 A3017 RMK A01
KBGF 051535Z AUTO 00000KT 10SM CLR 10/01 A3017 RMK A01
KBGF 051515Z AUTO 00000KT 10SM CLR 09/03 A3017 RMK A01
KBGF 051455Z AUTO 00000KT 10SM CLR 07/01 A3016 RMK A01
KBGF 051435Z AUTO 00000KT 10SM CLR 05/02 A3015 RMK A01
KBGF 051415Z AUTO 00000KT 10SM CLR 03/01 A3014 RMK A01
KBGF 051355Z AUTO 00000KT 10SM CLR 01/00 A3013 RMK A01
KBGF 051335Z AUTO 00000KT 10SM CLR 01/M01 A3012 RMK A01
KBGF 051315Z AUTO 00000KT 10SM CLR 00/M01 A3012 RMK A01
KBGF 051255Z AUTO 00000KT 10SM CLR 01/M01 A3010 RMK A01
KBGF 051235Z AUTO 00000KT 10SM CLR 00/M01 A3009 RMK A01
KBGF 051215Z AUTO 00000KT 10SM CLR 00/M01 A3008 RMK A01
KBGF 051155Z AUTO 00000KT 10SM CLR M00/M01 A3008 RMK A01
KBGF 051135Z AUTO 00000KT 10SM CLR M00/M01 A3008 RMK A01
KBGF 051115Z AUTO 00000KT 10SM CLR M01/M02 A3007 RMK A01
KBGF 051055Z AUTO 00000KT 10SM CLR M01/M02 A3006 RMK A01
KBGF 051035Z AUTO 00000KT 10SM CLR M01/M02 A3006 RMK A01
KBGF 051015Z AUTO 00000KT 10SM CLR M01/M01 A3005 RMK A01
KBGF 050955Z AUTO 00000KT 10SM CLR M01/M02 A3005 RMK A01
KBGF 050935Z AUTO 00000KT 10SM CLR M01/M02 A3005 RMK A01
KBGF 050915Z AUTO 00000KT 10SM CLR M01/M02 A3005 RMK A01
KBGF 050855Z AUTO 00000KT 10SM CLR M01/M02 A3005 RMK A01
KBGF 050835Z AUTO 00000KT 10SM CLR M00/M02 A3005 RMK A01
KBGF 050810Z AUTO 00000KT 10SM CLR 00/M01 A3005 RMK A01
KBGF 050755Z AUTO 00000KT 10SM CLR 00/M01 A3005 RMK A01
KBGF 050735Z AUTO 00000KT 10SM CLR 00/M01 A3004 RMK A01
KBGF 050715Z AUTO 00000KT 10SM CLR 00/M01 A3004 RMK A01
KBGF 050655Z AUTO 00000KT 10SM CLR 00/M01 A3004 RMK A01
KBGF 050615Z AUTO 00000KT 10SM CLR M00/M02 A3003 RMK A01
KBGF 050555Z AUTO 00000KT 10SM CLR M00/M01 A3004 RMK A01
KBGF 050535Z AUTO 00000KT 10SM CLR 00/M01 A3004 RMK A01
KBGF 050515Z AUTO 11003KT 10SM CLR M00/M01 A3003 RMK A01
KBGF 050455Z AUTO 00000KT 10SM CLR M00/M01 A3003 RMK A01
KBGF 050435Z AUTO 00000KT 10SM CLR 01/M01 A3002 RMK A01
KBGF 050415Z AUTO 00000KT 10SM CLR 01/M01 A3002 RMK A01
KBGF 050355Z AUTO 00000KT 10SM CLR 01/M01 A3000 RMK A01
KBGF 050335Z AUTO 00000KT 10SM CLR 01/M01 A3000 RMK A01
KBGF 050315Z AUTO 00000KT 10SM CLR 01/M01 A2998 RMK A01
KBGF 050255Z AUTO 00000KT 10SM CLR 02/M01 A2998 RMK A01
KBGF 050235Z AUTO 00000KT 10SM CLR 02/M01 A2998 RMK A01
KBGF 050215Z AUTO 00000KT 10SM CLR 03/M00 A2997 RMK A01
KBGF 050155Z AUTO 00000KT 10SM CLR 03/M00 A2997 RMK A01
KBGF 050135Z AUTO 00000KT 10SM CLR 04/M01 A2997 RMK A01
KBGF 050115Z AUTO 00000KT 10SM CLR 04/M00 A2996 RMK A01
KBGF 050055Z AUTO 00000KT 10SM CLR 05/M00 A2997 RMK A01
KBGF 050035Z AUTO 00000KT 10SM CLR 05/M00 A2996 RMK A01
KBGF 050015Z AUTO 00000KT 10SM CLR 06/00 A2996 RMK A01
KBGF 042355Z AUTO 00000KT 10SM CLR 07/M01 A2995 RMK A01
KBGF 042335Z AUTO 00000KT 10SM CLR 09/M01 A2995 RMK A01
KBGF 042315Z AUTO 00000KT 10SM CLR 10/M01 A2994 RMK A01
KBGF 042255Z AUTO 00000KT 10SM CLR 12/M02 A2994 RMK A01
KBGF 042235Z AUTO 00000KT 10SM CLR 12/M02 A2993 RMK A01
KBGF 042215Z AUTO 00000KT 10SM CLR 13/M03 A2992 RMK A01
KBGF 042155Z AUTO 00000KT 10SM CLR 13/M03 A2991 RMK A01
KBGF 042135Z AUTO 31004KT 10SM CLR 13/M04 A2991 RMK A01
KBGF 042115Z AUTO 31004KT 10SM CLR 14/M04 A2991 RMK A01
KBGF 042055Z AUTO 32005KT 10SM CLR 15/M04 A2990 RMK A01
KBGF 042035Z AUTO 32006KT 10SM CLR 15/M04 A2990 RMK A01
KBGF 042015Z AUTO 33009KT 310V010 10SM CLR 15/M04 A2989 RMK A01
KBGF 041955Z AUTO 30007G14KT 10SM CLR 15/M03 A2989 RMK A01
KBGF 041935Z AUTO 29009KT 260V320 10SM CLR 14/M03 A2989 RMK A01
KBGF 041915Z AUTO VRB06G11KT 10SM CLR 14/M01 A2988 RMK A01
KBGF 041855Z AUTO 29007G13KT 250V320 10SM CLR 14/M01 A2989 RMK A01
KBGF 041835Z AUTO 27008KT 10SM CLR 13/M00 A2990 RMK A01
KBGF 041815Z AUTO 29007G13KT 10SM CLR 13/M00 A2990 RMK A01
KBGF 041755Z AUTO 31005G11KT 10SM CLR 12/M00 A2991 RMK A01
KBGF 041735Z AUTO 30007G12KT 270V330 10SM CLR 11/M00 A2992 RMK A01
KBGF 041715Z AUTO 31005G11KT 10SM CLR 11/00 A2993 RMK A01
KBGF 041655Z AUTO 30006G13KT 8SM CLR 10/00 A2993 RMK A01
KBGF 041635Z AUTO 31005KT 10SM CLR 10/01 A2993 RMK A01
KBGF 041615Z AUTO 00000KT 10SM CLR 09/01 A2994 RMK A01
KBGF 041555Z AUTO 32003KT 10SM CLR 08/01 A2993 RMK A01
KBGF 041535Z AUTO 31004KT 10SM CLR 07/01 A2994 RMK A01
KBGF 041515Z AUTO 33004KT 10SM CLR 06/01 A2993 RMK A01
KBGF 041455Z AUTO 00000KT 10SM CLR 05/01 A2993 RMK A01
KBGF 041435Z AUTO 00000KT 10SM CLR 04/01 A2992 RMK A01
KBGF 041415Z AUTO 00000KT 10SM CLR 02/00 A2992 RMK A01
KBGF 041355Z AUTO 00000KT 10SM CLR 00/M01 A2991 RMK A01
KBGF 041335Z AUTO 00000KT 10SM CLR M01/M02 A2992 RMK A01
KBGF 041315Z AUTO 00000KT 10SM CLR M02/M03 A2991 RMK A01